sensor_id;sensor_type;location;lat;lon;timestamp;P1;durP1;ratioP1;P2;durP2;ratioP2
17658;SDS011;8948;51.534;8.262;2023-05-27T00:01:32;16.53;;;4.90;;
17658;SDS011;8948;51.534;8.262;2023-05-27T00:06:32;19.27;;;4.77;;
17658;SDS011;8948;51.534;8.262;2023-05-27T00:11:33;19.17;;;5.07;;
17658;SDS011;8948;51.534;8.262;2023-05-27T00:16:34;16.03;;;4.40;;
17658;SDS011;8948;51.534;8.262;2023-05-27T00:21:36;20.63;;;4.73;;
17658;SDS011;8948;51.534;8.262;2023-05-27T00:26:37;15.10;;;4.40;;
17658;SDS011;8948;51.534;8.262;2023-05-27T00:31:39;15.67;;;4.30;;
17658;SDS011;8948;51.534;8.262;2023-05-27T00:36:39;13.93;;;4.30;;
17658;SDS011;8948;51.534;8.262;2023-05-27T00:41:40;16.83;;;5.30;;
17658;SDS011;8948;51.534;8.262;2023-05-27T00:46:48;13.10;;;4.43;;
17658;SDS011;8948;51.534;8.262;2023-05-27T00:51:49;16.93;;;4.87;;
17658;SDS011;8948;51.534;8.262;2023-05-27T00:56:49;21.50;;;5.00;;
17658;SDS011;8948;51.534;8.262;2023-05-27T01:01:51;16.80;;;4.53;;
17658;SDS011;8948;51.534;8.262;2023-05-27T01:06:55;20.17;;;4.90;;
17658;SDS011;8948;51.534;8.262;2023-05-27T01:12:07;14.67;;;4.93;;
17658;SDS011;8948;51.534;8.262;2023-05-27T01:17:14;11.63;;;4.23;;
17658;SDS011;8948;51.534;8.262;2023-05-27T01:22:16;10.70;;;3.87;;
17658;SDS011;8948;51.534;8.262;2023-05-27T01:27:18;17.10;;;4.77;;
17658;SDS011;8948;51.534;8.262;2023-05-27T01:32:25;19.93;;;4.90;;
17658;SDS011;8948;51.534;8.262;2023-05-27T01:37:45;22.30;;;5.47;;
17658;SDS011;8948;51.534;8.262;2023-05-27T01:42:47;17.03;;;4.97;;
17658;SDS011;8948;51.534;8.262;2023-05-27T01:47:49;12.87;;;4.53;;
17658;SDS011;8948;51.534;8.262;2023-05-27T01:52:50;14.03;;;4.40;;
17658;SDS011;8948;51.534;8.262;2023-05-27T01:57:51;12.57;;;4.47;;
17658;SDS011;8948;51.534;8.262;2023-05-27T02:02:52;12.07;;;4.40;;
17658;SDS011;8948;51.534;8.262;2023-05-27T02:07:52;18.13;;;5.13;;
17658;SDS011;8948;51.534;8.262;2023-05-27T02:12:53;10.30;;;4.40;;
17658;SDS011;8948;51.534;8.262;2023-05-27T02:17:53;14.70;;;4.87;;
17658;SDS011;8948;51.534;8.262;2023-05-27T02:22:58;19.90;;;4.60;;
17658;SDS011;8948;51.534;8.262;2023-05-27T02:28:00;13.73;;;4.60;;
17658;SDS011;8948;51.534;8.262;2023-05-27T02:33:02;14.10;;;4.90;;
17658;SDS011;8948;51.534;8.262;2023-05-27T02:38:03;25.57;;;5.07;;
17658;SDS011;8948;51.534;8.262;2023-05-27T02:43:03;15.93;;;5.53;;
17658;SDS011;8948;51.534;8.262;2023-05-27T02:48:04;16.60;;;4.93;;
17658;SDS011;8948;51.534;8.262;2023-05-27T02:53:05;15.67;;;4.60;;
17658;SDS011;8948;51.534;8.262;2023-05-27T02:58:05;20.33;;;5.13;;
17658;SDS011;8948;51.534;8.262;2023-05-27T03:03:07;13.87;;;5.00;;
17658;SDS011;8948;51.534;8.262;2023-05-27T03:08:07;15.40;;;5.07;;
17658;SDS011;8948;51.534;8.262;2023-05-27T03:13:08;11.57;;;4.73;;
17658;SDS011;8948;51.534;8.262;2023-05-27T03:18:09;11.83;;;4.73;;
17658;SDS011;8948;51.534;8.262;2023-05-27T03:23:10;15.33;;;5.00;;
17658;SDS011;8948;51.534;8.262;2023-05-27T03:28:10;20.20;;;6.20;;
17658;SDS011;8948;51.534;8.262;2023-05-27T03:33:11;14.23;;;5.13;;
17658;SDS011;8948;51.534;8.262;2023-05-27T03:38:11;17.03;;;5.10;;
17658;SDS011;8948;51.534;8.262;2023-05-27T03:43:12;20.93;;;5.93;;
17658;SDS011;8948;51.534;8.262;2023-05-27T03:48:12;15.07;;;5.13;;
17658;SDS011;8948;51.534;8.262;2023-05-27T03:53:13;16.73;;;5.87;;
17658;SDS011;8948;51.534;8.262;2023-05-27T03:58:13;16.43;;;5.60;;
17658;SDS011;8948;51.534;8.262;2023-05-27T04:03:14;20.57;;;5.00;;
17658;SDS011;8948;51.534;8.262;2023-05-27T04:08:15;11.27;;;4.43;;
17658;SDS011;8948;51.534;8.262;2023-05-27T04:13:15;18.90;;;4.83;;
17658;SDS011;8948;51.534;8.262;2023-05-27T04:18:16;12.70;;;5.53;;
17658;SDS011;8948;51.534;8.262;2023-05-27T04:23:16;11.60;;;4.33;;
17658;SDS011;8948;51.534;8.262;2023-05-27T04:28:18;18.13;;;4.90;;
17658;SDS011;8948;51.534;8.262;2023-05-27T04:33:20;16.20;;;5.53;;
17658;SDS011;8948;51.534;8.262;2023-05-27T04:38:21;13.50;;;4.67;;
17658;SDS011;8948;51.534;8.262;2023-05-27T04:43:22;12.17;;;4.20;;
17658;SDS011;8948;51.534;8.262;2023-05-27T04:48:23;14.53;;;4.87;;
17658;SDS011;8948;51.534;8.262;2023-05-27T04:53:23;17.60;;;4.90;;
17658;SDS011;8948;51.534;8.262;2023-05-27T04:58:24;20.90;;;5.10;;
17658;SDS011;8948;51.534;8.262;2023-05-27T05:03:25;31.97;;;7.93;;
17658;SDS011;8948;51.534;8.262;2023-05-27T05:08:52;23.67;;;6.87;;
17658;SDS011;8948;51.534;8.262;2023-05-27T05:13:53;29.90;;;7.50;;
17658;SDS011;8948;51.534;8.262;2023-05-27T05:18:53;15.97;;;5.83;;
17658;SDS011;8948;51.534;8.262;2023-05-27T05:23:54;19.33;;;6.37;;
17658;SDS011;8948;51.534;8.262;2023-05-27T05:28:54;22.10;;;6.97;;
17658;SDS011;8948;51.534;8.262;2023-05-27T05:33:55;22.30;;;6.20;;
17658;SDS011;8948;51.534;8.262;2023-05-27T05:38:55;26.67;;;7.97;;
17658;SDS011;8948;51.534;8.262;2023-05-27T05:43:56;23.47;;;7.10;;
17658;SDS011;8948;51.534;8.262;2023-05-27T05:48:57;26.00;;;7.47;;
17658;SDS011;8948;51.534;8.262;2023-05-27T05:53:57;26.80;;;7.77;;
17658;SDS011;8948;51.534;8.262;2023-05-27T05:58:58;32.23;;;8.37;;
17658;SDS011;8948;51.534;8.262;2023-05-27T06:03:59;22.63;;;7.37;;
17658;SDS011;8948;51.534;8.262;2023-05-27T06:09:04;28.27;;;8.17;;
17658;SDS011;8948;51.534;8.262;2023-05-27T06:14:05;32.63;;;8.30;;
17658;SDS011;8948;51.534;8.262;2023-05-27T06:19:07;34.47;;;9.47;;
17658;SDS011;8948;51.534;8.262;2023-05-27T06:24:07;26.07;;;8.50;;
17658;SDS011;8948;51.534;8.262;2023-05-27T06:29:08;24.70;;;8.43;;
17658;SDS011;8948;51.534;8.262;2023-05-27T06:34:08;24.70;;;7.73;;
17658;SDS011;8948;51.534;8.262;2023-05-27T06:39:09;27.27;;;7.57;;
17658;SDS011;8948;51.534;8.262;2023-05-27T06:44:09;16.70;;;6.97;;
17658;SDS011;8948;51.534;8.262;2023-05-27T06:49:10;25.93;;;7.10;;
17658;SDS011;8948;51.534;8.262;2023-05-27T06:54:11;29.93;;;7.50;;
17658;SDS011;8948;51.534;8.262;2023-05-27T06:59:12;29.90;;;6.97;;
17658;SDS011;8948;51.534;8.262;2023-05-27T07:04:12;21.93;;;7.60;;
17658;SDS011;8948;51.534;8.262;2023-05-27T07:09:13;25.27;;;6.93;;
17658;SDS011;8948;51.534;8.262;2023-05-27T07:14:14;21.03;;;7.17;;
17658;SDS011;8948;51.534;8.262;2023-05-27T07:19:15;21.70;;;6.43;;
17658;SDS011;8948;51.534;8.262;2023-05-27T07:24:16;20.00;;;6.30;;
17658;SDS011;8948;51.534;8.262;2023-05-27T07:29:17;22.70;;;5.97;;
17658;SDS011;8948;51.534;8.262;2023-05-27T07:34:17;21.27;;;6.22;;
17658;SDS011;8948;51.534;8.262;2023-05-27T07:39:18;28.33;;;6.45;;
17658;SDS011;8948;51.534;8.262;2023-05-27T07:44:18;20.30;;;5.93;;
17658;SDS011;8948;51.534;8.262;2023-05-27T07:49:19;20.00;;;6.15;;
17658;SDS011;8948;51.534;8.262;2023-05-27T07:54:20;21.38;;;6.35;;
17658;SDS011;8948;51.534;8.262;2023-05-27T07:59:21;18.73;;;5.63;;
17658;SDS011;8948;51.534;8.262;2023-05-27T08:04:21;17.80;;;5.28;;
17658;SDS011;8948;51.534;8.262;2023-05-27T08:09:22;20.52;;;5.78;;
17658;SDS011;8948;51.534;8.262;2023-05-27T08:14:22;18.85;;;5.28;;
17658;SDS011;8948;51.534;8.262;2023-05-27T08:19:24;18.77;;;5.30;;
17658;SDS011;8948;51.534;8.262;2023-05-27T08:24:25;23.20;;;6.57;;
17658;SDS011;8948;51.534;8.262;2023-05-27T08:29:27;24.80;;;6.72;;
17658;SDS011;8948;51.534;8.262;2023-05-27T08:34:28;20.27;;;5.82;;
17658;SDS011;8948;51.534;8.262;2023-05-27T08:39:28;25.20;;;5.50;;
17658;SDS011;8948;51.534;8.262;2023-05-27T08:44:29;24.65;;;5.35;;
17658;SDS011;8948;51.534;8.262;2023-05-27T08:49:31;17.33;;;5.07;;
17658;SDS011;8948;51.534;8.262;2023-05-27T08:54:31;20.75;;;5.55;;
17658;SDS011;8948;51.534;8.262;2023-05-27T08:59:34;20.02;;;6.05;;
17658;SDS011;8948;51.534;8.262;2023-05-27T09:04:35;14.50;;;5.10;;
17658;SDS011;8948;51.534;8.262;2023-05-27T09:09:40;16.77;;;5.13;;
17658;SDS011;8948;51.534;8.262;2023-05-27T09:14:41;27.60;;;6.22;;
17658;SDS011;8948;51.534;8.262;2023-05-27T09:19:46;20.42;;;5.35;;
17658;SDS011;8948;51.534;8.262;2023-05-27T09:24:47;22.77;;;5.55;;
17658;SDS011;8948;51.534;8.262;2023-05-27T09:29:47;24.63;;;5.65;;
17658;SDS011;8948;51.534;8.262;2023-05-27T09:34:48;18.77;;;5.32;;
17658;SDS011;8948;51.534;8.262;2023-05-27T09:39:51;21.15;;;5.60;;
17658;SDS011;8948;51.534;8.262;2023-05-27T09:44:53;16.58;;;5.30;;
17658;SDS011;8948;51.534;8.262;2023-05-27T09:49:55;19.55;;;5.68;;
17658;SDS011;8948;51.534;8.262;2023-05-27T09:54:56;20.85;;;5.20;;
17658;SDS011;8948;51.534;8.262;2023-05-27T09:59:58;20.52;;;5.60;;
17658;SDS011;8948;51.534;8.262;2023-05-27T10:05:00;17.38;;;4.88;;
17658;SDS011;8948;51.534;8.262;2023-05-27T10:10:03;18.60;;;5.43;;
17658;SDS011;8948;51.534;8.262;2023-05-27T10:15:08;23.02;;;5.32;;
17658;SDS011;8948;51.534;8.262;2023-05-27T10:20:09;15.02;;;4.80;;
17658;SDS011;8948;51.534;8.262;2023-05-27T10:25:13;19.17;;;4.90;;
17658;SDS011;8948;51.534;8.262;2023-05-27T10:30:14;14.43;;;5.68;;
17658;SDS011;8948;51.534;8.262;2023-05-27T10:35:18;22.25;;;6.07;;
17658;SDS011;8948;51.534;8.262;2023-05-27T10:40:25;22.35;;;5.50;;
17658;SDS011;8948;51.534;8.262;2023-05-27T10:45:31;20.40;;;4.90;;
17658;SDS011;8948;51.534;8.262;2023-05-27T10:50:34;15.10;;;5.15;;
17658;SDS011;8948;51.534;8.262;2023-05-27T10:55:34;17.15;;;4.90;;
17658;SDS011;8948;51.534;8.262;2023-05-27T11:00:36;16.30;;;5.10;;
17658;SDS011;8948;51.534;8.262;2023-05-27T11:05:40;21.05;;;5.35;;
17658;SDS011;8948;51.534;8.262;2023-05-27T11:10:41;15.65;;;4.97;;
17658;SDS011;8948;51.534;8.262;2023-05-27T11:15:42;16.23;;;4.88;;
17658;SDS011;8948;51.534;8.262;2023-05-27T11:20:42;14.93;;;4.95;;
17658;SDS011;8948;51.534;8.262;2023-05-27T11:25:43;14.70;;;5.00;;
17658;SDS011;8948;51.534;8.262;2023-05-27T11:30:44;18.33;;;5.28;;
17658;SDS011;8948;51.534;8.262;2023-05-27T11:35:46;19.30;;;4.38;;
17658;SDS011;8948;51.534;8.262;2023-05-27T11:40:46;15.32;;;4.72;;
17658;SDS011;8948;51.534;8.262;2023-05-27T11:45:47;14.05;;;4.70;;
17658;SDS011;8948;51.534;8.262;2023-05-27T11:50:48;14.35;;;4.63;;
17658;SDS011;8948;51.534;8.262;2023-05-27T11:55:50;14.98;;;4.68;;
17658;SDS011;8948;51.534;8.262;2023-05-27T12:00:51;14.50;;;4.32;;
17658;SDS011;8948;51.534;8.262;2023-05-27T12:05:52;15.48;;;4.72;;
17658;SDS011;8948;51.534;8.262;2023-05-27T12:10:52;18.58;;;4.93;;
17658;SDS011;8948;51.534;8.262;2023-05-27T12:15:56;16.50;;;5.05;;
17658;SDS011;8948;51.534;8.262;2023-05-27T12:20:57;13.45;;;4.68;;
17658;SDS011;8948;51.534;8.262;2023-05-27T12:25:58;14.07;;;4.78;;
17658;SDS011;8948;51.534;8.262;2023-05-27T12:30:58;16.15;;;5.10;;
17658;SDS011;8948;51.534;8.262;2023-05-27T12:36:00;11.00;;;4.15;;
17658;SDS011;8948;51.534;8.262;2023-05-27T12:41:02;14.48;;;4.45;;
17658;SDS011;8948;51.534;8.262;2023-05-27T12:46:03;12.25;;;4.47;;
17658;SDS011;8948;51.534;8.262;2023-05-27T12:51:04;13.02;;;5.10;;
17658;SDS011;8948;51.534;8.262;2023-05-27T12:56:05;12.60;;;4.75;;
17658;SDS011;8948;51.534;8.262;2023-05-27T13:01:06;9.02;;;3.95;;
17658;SDS011;8948;51.534;8.262;2023-05-27T13:06:07;12.95;;;4.50;;
17658;SDS011;8948;51.534;8.262;2023-05-27T13:11:08;14.57;;;4.60;;
17658;SDS011;8948;51.534;8.262;2023-05-27T13:16:09;11.18;;;4.55;;
17658;SDS011;8948;51.534;8.262;2023-05-27T13:21:09;10.57;;;4.07;;
17658;SDS011;8948;51.534;8.262;2023-05-27T13:26:10;13.05;;;4.53;;
17658;SDS011;8948;51.534;8.262;2023-05-27T13:31:10;10.68;;;4.20;;
17658;SDS011;8948;51.534;8.262;2023-05-27T13:36:12;8.98;;;3.95;;
17658;SDS011;8948;51.534;8.262;2023-05-27T13:41:13;9.80;;;4.32;;
17658;SDS011;8948;51.534;8.262;2023-05-27T13:46:13;14.15;;;3.90;;
17658;SDS011;8948;51.534;8.262;2023-05-27T13:51:14;10.07;;;3.72;;
17658;SDS011;8948;51.534;8.262;2023-05-27T13:56:15;12.52;;;4.07;;
17658;SDS011;8948;51.534;8.262;2023-05-27T14:01:16;13.60;;;4.30;;
17658;SDS011;8948;51.534;8.262;2023-05-27T14:06:16;12.73;;;3.75;;
17658;SDS011;8948;51.534;8.262;2023-05-27T14:11:17;9.32;;;3.70;;
17658;SDS011;8948;51.534;8.262;2023-05-27T14:16:18;10.00;;;3.95;;
17658;SDS011;8948;51.534;8.262;2023-05-27T14:21:21;11.43;;;3.88;;
17658;SDS011;8948;51.534;8.262;2023-05-27T14:26:21;10.75;;;3.75;;
17658;SDS011;8948;51.534;8.262;2023-05-27T14:31:22;7.38;;;3.60;;
17658;SDS011;8948;51.534;8.262;2023-05-27T14:36:22;11.20;;;3.50;;
17658;SDS011;8948;51.534;8.262;2023-05-27T14:41:23;11.90;;;4.20;;
17658;SDS011;8948;51.534;8.262;2023-05-27T14:46:24;10.25;;;3.88;;
17658;SDS011;8948;51.534;8.262;2023-05-27T14:51:24;12.27;;;3.92;;
17658;SDS011;8948;51.534;8.262;2023-05-27T14:56:25;9.13;;;3.50;;
17658;SDS011;8948;51.534;8.262;2023-05-27T15:01:26;7.53;;;3.70;;
17658;SDS011;8948;51.534;8.262;2023-05-27T15:06:26;11.65;;;3.47;;
17658;SDS011;8948;51.534;8.262;2023-05-27T15:11:27;13.10;;;3.97;;
17658;SDS011;8948;51.534;8.262;2023-05-27T15:16:28;7.90;;;3.78;;
17658;SDS011;8948;51.534;8.262;2023-05-27T15:21:28;8.85;;;3.92;;
17658;SDS011;8948;51.534;8.262;2023-05-27T15:26:29;8.05;;;3.33;;
17658;SDS011;8948;51.534;8.262;2023-05-27T15:31:30;9.98;;;3.90;;
17658;SDS011;8948;51.534;8.262;2023-05-27T15:36:30;9.82;;;3.83;;
17658;SDS011;8948;51.534;8.262;2023-05-27T15:41:32;14.75;;;3.72;;
17658;SDS011;8948;51.534;8.262;2023-05-27T15:46:32;14.18;;;3.60;;
17658;SDS011;8948;51.534;8.262;2023-05-27T15:51:33;6.22;;;3.17;;
17658;SDS011;8948;51.534;8.262;2023-05-27T15:56:33;8.38;;;3.58;;
17658;SDS011;8948;51.534;8.262;2023-05-27T16:01:34;9.70;;;3.33;;
17658;SDS011;8948;51.534;8.262;2023-05-27T16:06:36;10.30;;;3.72;;
17658;SDS011;8948;51.534;8.262;2023-05-27T16:11:36;8.75;;;3.83;;
17658;SDS011;8948;51.534;8.262;2023-05-27T16:16:37;6.75;;;2.95;;
17658;SDS011;8948;51.534;8.262;2023-05-27T16:21:38;15.05;;;3.92;;
17658;SDS011;8948;51.534;8.262;2023-05-27T16:26:38;7.15;;;3.50;;
17658;SDS011;8948;51.534;8.262;2023-05-27T16:31:39;11.43;;;4.13;;
17658;SDS011;8948;51.534;8.262;2023-05-27T16:36:40;9.48;;;3.72;;
17658;SDS011;8948;51.534;8.262;2023-05-27T16:41:40;8.40;;;3.58;;
17658;SDS011;8948;51.534;8.262;2023-05-27T16:46:41;8.82;;;3.63;;
17658;SDS011;8948;51.534;8.262;2023-05-27T16:51:41;8.32;;;3.42;;
17658;SDS011;8948;51.534;8.262;2023-05-27T16:56:42;13.23;;;3.83;;
17658;SDS011;8948;51.534;8.262;2023-05-27T17:01:42;15.10;;;4.15;;
17658;SDS011;8948;51.534;8.262;2023-05-27T17:06:43;8.35;;;3.60;;
17658;SDS011;8948;51.534;8.262;2023-05-27T17:11:44;9.65;;;4.05;;
17658;SDS011;8948;51.534;8.262;2023-05-27T17:16:45;9.40;;;3.30;;
17658;SDS011;8948;51.534;8.262;2023-05-27T17:21:45;10.20;;;3.38;;
17658;SDS011;8948;51.534;8.262;2023-05-27T17:26:46;9.68;;;3.63;;
17658;SDS011;8948;51.534;8.262;2023-05-27T17:31:47;11.10;;;4.00;;
17658;SDS011;8948;51.534;8.262;2023-05-27T17:36:47;8.75;;;3.65;;
17658;SDS011;8948;51.534;8.262;2023-05-27T17:41:48;11.25;;;3.88;;
17658;SDS011;8948;51.534;8.262;2023-05-27T17:46:49;14.43;;;3.85;;
17658;SDS011;8948;51.534;8.262;2023-05-27T17:51:49;7.40;;;3.30;;
17658;SDS011;8948;51.534;8.262;2023-05-27T17:56:50;8.65;;;3.40;;
17658;SDS011;8948;51.534;8.262;2023-05-27T18:01:50;9.30;;;3.80;;
17658;SDS011;8948;51.534;8.262;2023-05-27T18:06:51;12.52;;;3.83;;
17658;SDS011;8948;51.534;8.262;2023-05-27T18:11:52;11.05;;;3.63;;
17658;SDS011;8948;51.534;8.262;2023-05-27T18:16:52;9.70;;;4.05;;
17658;SDS011;8948;51.534;8.262;2023-05-27T18:21:53;9.70;;;3.70;;
17658;SDS011;8948;51.534;8.262;2023-05-27T18:26:53;8.68;;;3.60;;
17658;SDS011;8948;51.534;8.262;2023-05-27T18:31:54;10.35;;;3.40;;
17658;SDS011;8948;51.534;8.262;2023-05-27T18:36:55;10.63;;;4.03;;
17658;SDS011;8948;51.534;8.262;2023-05-27T18:41:56;8.43;;;3.63;;
17658;SDS011;8948;51.534;8.262;2023-05-27T18:46:57;10.93;;;3.75;;
17658;SDS011;8948;51.534;8.262;2023-05-27T18:51:57;11.07;;;3.65;;
17658;SDS011;8948;51.534;8.262;2023-05-27T18:56:58;9.27;;;3.72;;
17658;SDS011;8948;51.534;8.262;2023-05-27T19:01:58;9.05;;;3.45;;
17658;SDS011;8948;51.534;8.262;2023-05-27T19:06:59;9.73;;;3.65;;
17658;SDS011;8948;51.534;8.262;2023-05-27T19:12:00;6.55;;;4.40;;
17658;SDS011;8948;51.534;8.262;2023-05-27T19:17:01;16.10;;;4.25;;
17658;SDS011;8948;51.534;8.262;2023-05-27T19:22:02;9.80;;;3.80;;
17658;SDS011;8948;51.534;8.262;2023-05-27T19:27:03;17.73;;;4.90;;
17658;SDS011;8948;51.534;8.262;2023-05-27T19:32:04;11.57;;;3.90;;
17658;SDS011;8948;51.534;8.262;2023-05-27T19:37:05;9.60;;;4.30;;
17658;SDS011;8948;51.534;8.262;2023-05-27T19:42:05;8.23;;;3.63;;
17658;SDS011;8948;51.534;8.262;2023-05-27T19:47:06;7.95;;;4.20;;
17658;SDS011;8948;51.534;8.262;2023-05-27T19:52:07;13.48;;;4.85;;
17658;SDS011;8948;51.534;8.262;2023-05-27T19:57:07;17.13;;;4.72;;
17658;SDS011;8948;51.534;8.262;2023-05-27T20:02:08;12.10;;;4.57;;
17658;SDS011;8948;51.534;8.262;2023-05-27T20:07:08;8.63;;;3.58;;
17658;SDS011;8948;51.534;8.262;2023-05-27T20:12:09;10.18;;;4.22;;
17658;SDS011;8948;51.534;8.262;2023-05-27T20:17:09;7.65;;;3.70;;
17658;SDS011;8948;51.534;8.262;2023-05-27T20:22:10;11.05;;;4.63;;
17658;SDS011;8948;51.534;8.262;2023-05-27T20:27:11;11.50;;;4.22;;
17658;SDS011;8948;51.534;8.262;2023-05-27T20:32:11;12.27;;;4.32;;
17658;SDS011;8948;51.534;8.262;2023-05-27T20:37:12;9.65;;;4.00;;
17658;SDS011;8948;51.534;8.262;2023-05-27T20:42:13;11.88;;;4.50;;
17658;SDS011;8948;51.534;8.262;2023-05-27T20:47:14;8.73;;;4.40;;
17658;SDS011;8948;51.534;8.262;2023-05-27T20:52:15;9.13;;;4.20;;
17658;SDS011;8948;51.534;8.262;2023-05-27T20:57:15;12.40;;;4.00;;
17658;SDS011;8948;51.534;8.262;2023-05-27T21:02:16;9.82;;;3.92;;
17658;SDS011;8948;51.534;8.262;2023-05-27T21:07:17;11.65;;;4.40;;
17658;SDS011;8948;51.534;8.262;2023-05-27T21:12:18;10.52;;;4.20;;
17658;SDS011;8948;51.534;8.262;2023-05-27T21:17:19;11.95;;;4.07;;
17658;SDS011;8948;51.534;8.262;2023-05-27T21:22:20;8.13;;;3.97;;
17658;SDS011;8948;51.534;8.262;2023-05-27T21:27:20;7.85;;;4.05;;
17658;SDS011;8948;51.534;8.262;2023-05-27T21:32:21;11.35;;;4.72;;
17658;SDS011;8948;51.534;8.262;2023-05-27T21:37:22;9.82;;;4.00;;
17658;SDS011;8948;51.534;8.262;2023-05-27T21:42:23;13.43;;;4.43;;
17658;SDS011;8948;51.534;8.262;2023-05-27T21:47:23;10.85;;;4.28;;
17658;SDS011;8948;51.534;8.262;2023-05-27T21:52:24;16.30;;;4.68;;
17658;SDS011;8948;51.534;8.262;2023-05-27T21:57:25;8.65;;;3.80;;
17658;SDS011;8948;51.534;8.262;2023-05-27T22:02:26;8.95;;;3.88;;
17658;SDS011;8948;51.534;8.262;2023-05-27T22:07:26;7.32;;;4.28;;
17658;SDS011;8948;51.534;8.262;2023-05-27T22:12:27;11.20;;;4.72;;
17658;SDS011;8948;51.534;8.262;2023-05-27T22:17:27;17.27;;;4.65;;
17658;SDS011;8948;51.534;8.262;2023-05-27T22:22:28;10.35;;;3.92;;
17658;SDS011;8948;51.534;8.262;2023-05-27T22:27:30;14.13;;;4.60;;
17658;SDS011;8948;51.534;8.262;2023-05-27T22:32:30;9.23;;;4.25;;
17658;SDS011;8948;51.534;8.262;2023-05-27T22:37:31;11.55;;;4.47;;
17658;SDS011;8948;51.534;8.262;2023-05-27T22:42:32;8.75;;;4.50;;
17658;SDS011;8948;51.534;8.262;2023-05-27T22:47:32;11.10;;;4.50;;
17658;SDS011;8948;51.534;8.262;2023-05-27T22:52:35;12.70;;;4.30;;
17658;SDS011;8948;51.534;8.262;2023-05-27T22:57:35;12.45;;;5.30;;
17658;SDS011;8948;51.534;8.262;2023-05-27T23:02:36;10.30;;;4.43;;
17658;SDS011;8948;51.534;8.262;2023-05-27T23:07:36;12.40;;;5.00;;
17658;SDS011;8948;51.534;8.262;2023-05-27T23:12:37;13.50;;;5.05;;
17658;SDS011;8948;51.534;8.262;2023-05-27T23:17:37;10.35;;;4.82;;
17658;SDS011;8948;51.534;8.262;2023-05-27T23:22:38;10.75;;;4.95;;
17658;SDS011;8948;51.534;8.262;2023-05-27T23:27:39;11.70;;;4.82;;
17658;SDS011;8948;51.534;8.262;2023-05-27T23:32:40;9.30;;;4.32;;
17658;SDS011;8948;51.534;8.262;2023-05-27T23:37:42;10.45;;;4.40;;
17658;SDS011;8948;51.534;8.262;2023-05-27T23:42:43;16.65;;;4.65;;
17658;SDS011;8948;51.534;8.262;2023-05-27T23:47:44;14.27;;;4.65;;
17658;SDS011;8948;51.534;8.262;2023-05-27T23:52:44;8.18;;;4.10;;
17658;SDS011;8948;51.534;8.262;2023-05-27T23:57:45;15.07;;;4.70;;
